sensor_id;sensor_type;location;lat;lon;timestamp;pressure;altitude;pressure_sealevel;temperature;humidity
48563;BME280;34981;49.104;11.396;2023-06-22T00:00:02;97115.41;;;18.60;100.00
48563;BME280;34981;49.104;11.396;2023-06-22T00:02:38;97144.66;;;18.49;100.00
48563;BME280;34981;49.104;11.396;2023-06-22T00:05:05;97200.38;;;18.62;100.00
48563;BME280;34981;49.104;11.396;2023-06-22T00:07:32;97278.69;;;18.41;100.00
48563;BME280;34981;49.104;11.396;2023-06-22T00:09:59;97353.47;;;18.59;100.00
48563;BME280;34981;49.104;11.396;2023-06-22T00:12:26;97392.72;;;18.53;100.00
48563;BME280;34981;49.104;11.396;2023-06-22T00:14:53;97456.75;;;18.45;100.00
48563;BME280;34981;49.104;11.396;2023-06-22T00:17:21;97508.50;;;18.45;100.00
48563;BME280;34981;49.104;11.396;2023-06-22T00:19:48;97544.94;;;18.59;100.00
48563;BME280;34981;49.104;11.396;2023-06-22T00:22:20;97582.53;;;18.52;100.00
48563;BME280;34981;49.104;11.396;2023-06-22T00:24:55;97633.69;;;18.65;100.00
48563;BME280;34981;49.104;11.396;2023-06-22T00:27:22;97677.28;;;18.65;100.00
48563;BME280;34981;49.104;11.396;2023-06-22T00:29:49;97722.25;;;18.53;100.00
48563;BME280;34981;49.104;11.396;2023-06-22T00:32:17;97838.53;;;18.52;100.00
48563;BME280;34981;49.104;11.396;2023-06-22T00:34:46;97918.66;;;18.61;100.00
48563;BME280;34981;49.104;11.396;2023-06-22T00:37:14;98038.41;;;18.41;100.00
48563;BME280;34981;49.104;11.396;2023-06-22T00:39:42;98119.59;;;18.44;100.00
48563;BME280;34981;49.104;11.396;2023-06-22T00:42:09;98146.34;;;18.57;100.00
48563;BME280;34981;49.104;11.396;2023-06-22T00:44:36;98168.66;;;18.54;100.00
48563;BME280;34981;49.104;11.396;2023-06-22T00:47:03;98183.41;;;18.58;100.00
48563;BME280;34981;49.104;11.396;2023-06-22T00:49:31;98193.50;;;18.63;100.00
48563;BME280;34981;49.104;11.396;2023-06-22T00:51:58;98183.16;;;18.60;100.00
48563;BME280;34981;49.104;11.396;2023-06-22T00:54:26;98202.19;;;18.55;100.00
48563;BME280;34981;49.104;11.396;2023-06-22T00:56:55;98204.06;;;18.54;100.00
48563;BME280;34981;49.104;11.396;2023-06-22T00:59:24;98223.75;;;18.61;100.00
48563;BME280;34981;49.104;11.396;2023-06-22T01:01:53;98288.78;;;18.53;100.00
48563;BME280;34981;49.104;11.396;2023-06-22T01:04:26;98353.25;;;18.42;100.00
48563;BME280;34981;49.104;11.396;2023-06-22T01:09:35;98464.19;;;18.52;100.00
48563;BME280;34981;49.104;11.396;2023-06-22T01:12:06;98482.41;;;18.46;100.00
48563;BME280;34981;49.104;11.396;2023-06-22T01:15:08;98555.25;;;18.34;100.00
48563;BME280;34981;49.104;11.396;2023-06-22T01:17:27;98777.91;;;18.27;100.00
48563;BME280;34981;49.104;11.396;2023-06-22T01:19:55;98824.78;;;18.29;100.00
48563;BME280;34981;49.104;11.396;2023-06-22T01:22:24;98895.78;;;18.39;100.00
48563;BME280;34981;49.104;11.396;2023-06-22T01:24:57;98914.44;;;18.47;100.00
48563;BME280;34981;49.104;11.396;2023-06-22T01:27:46;98920.44;;;18.49;100.00
48563;BME280;34981;49.104;11.396;2023-06-22T01:30:17;98938.84;;;18.42;100.00
48563;BME280;34981;49.104;11.396;2023-06-22T01:32:45;98956.00;;;18.43;100.00
48563;BME280;34981;49.104;11.396;2023-06-22T01:35:14;98970.38;;;18.38;100.00
48563;BME280;34981;49.104;11.396;2023-06-22T01:37:41;98988.38;;;18.39;100.00
48563;BME280;34981;49.104;11.396;2023-06-22T01:40:10;99011.25;;;18.38;100.00
48563;BME280;34981;49.104;11.396;2023-06-22T01:42:38;99055.69;;;18.27;100.00
48563;BME280;34981;49.104;11.396;2023-06-22T01:45:07;99097.47;;;18.33;100.00
48563;BME280;34981;49.104;11.396;2023-06-22T01:47:34;99119.34;;;18.38;100.00
48563;BME280;34981;49.104;11.396;2023-06-22T01:50:02;99161.19;;;18.32;100.00
48563;BME280;34981;49.104;11.396;2023-06-22T01:52:29;99199.50;;;18.42;100.00
48563;BME280;34981;49.104;11.396;2023-06-22T01:54:56;99203.81;;;18.38;100.00
48563;BME280;34981;49.104;11.396;2023-06-22T01:57:25;99224.75;;;18.37;100.00
48563;BME280;34981;49.104;11.396;2023-06-22T01:59:55;99227.38;;;18.32;100.00
48563;BME280;34981;49.104;11.396;2023-06-22T02:02:27;99242.16;;;18.36;100.00
48563;BME280;34981;49.104;11.396;2023-06-22T02:05:02;99259.84;;;18.34;100.00
48563;BME280;34981;49.104;11.396;2023-06-22T02:07:36;99279.13;;;18.32;100.00
48563;BME280;34981;49.104;11.396;2023-06-22T02:10:06;99289.88;;;18.27;100.00
48563;BME280;34981;49.104;11.396;2023-06-22T02:12:34;99387.47;;;18.30;100.00
48563;BME280;34981;49.104;11.396;2023-06-22T02:15:02;99405.50;;;18.31;100.00
48563;BME280;34981;49.104;11.396;2023-06-22T02:17:30;99422.44;;;18.33;100.00
48563;BME280;34981;49.104;11.396;2023-06-22T02:20:01;99426.00;;;18.34;100.00
48563;BME280;34981;49.104;11.396;2023-06-22T02:22:29;99436.41;;;18.37;100.00
48563;BME280;34981;49.104;11.396;2023-06-22T02:24:56;99444.34;;;18.38;100.00
48563;BME280;34981;49.104;11.396;2023-06-22T02:27:24;99434.97;;;18.34;100.00
48563;BME280;34981;49.104;11.396;2023-06-22T02:29:52;99447.78;;;18.34;100.00
48563;BME280;34981;49.104;11.396;2023-06-22T02:32:19;99432.72;;;18.31;100.00
48563;BME280;34981;49.104;11.396;2023-06-22T02:34:46;99470.59;;;18.21;100.00
48563;BME280;34981;49.104;11.396;2023-06-22T02:37:16;99508.41;;;17.99;100.00
48563;BME280;34981;49.104;11.396;2023-06-22T02:39:43;99583.03;;;18.10;100.00
48563;BME280;34981;49.104;11.396;2023-06-22T02:42:10;99613.81;;;18.10;100.00
48563;BME280;34981;49.104;11.396;2023-06-22T02:44:37;99642.94;;;18.10;100.00
48563;BME280;34981;49.104;11.396;2023-06-22T02:47:05;99656.16;;;18.24;100.00
48563;BME280;34981;49.104;11.396;2023-06-22T02:49:32;99664.34;;;18.24;100.00
48563;BME280;34981;49.104;11.396;2023-06-22T02:51:59;99691.34;;;18.26;100.00
48563;BME280;34981;49.104;11.396;2023-06-22T02:57:23;99693.84;;;18.09;100.00
48563;BME280;34981;49.104;11.396;2023-06-22T02:59:50;99742.63;;;18.11;100.00
48563;BME280;34981;49.104;11.396;2023-06-22T03:02:19;99778.25;;;18.09;100.00
48563;BME280;34981;49.104;11.396;2023-06-22T03:04:48;99810.03;;;18.15;100.00
48563;BME280;34981;49.104;11.396;2023-06-22T03:07:16;99819.81;;;18.23;100.00
48563;BME280;34981;49.104;11.396;2023-06-22T03:09:44;99832.97;;;18.26;100.00
48563;BME280;34981;49.104;11.396;2023-06-22T03:12:12;99836.59;;;18.20;100.00
48563;BME280;34981;49.104;11.396;2023-06-22T03:14:49;99854.38;;;18.22;100.00
48563;BME280;34981;49.104;11.396;2023-06-22T03:17:17;99864.00;;;18.25;100.00
48563;BME280;34981;49.104;11.396;2023-06-22T03:19:44;99867.78;;;18.24;100.00
48563;BME280;34981;49.104;11.396;2023-06-22T03:22:11;99883.13;;;18.18;100.00
48563;BME280;34981;49.104;11.396;2023-06-22T03:24:40;99893.63;;;18.15;100.00
48563;BME280;34981;49.104;11.396;2023-06-22T03:27:07;99889.28;;;18.07;100.00
48563;BME280;34981;49.104;11.396;2023-06-22T03:29:34;99922.38;;;18.11;100.00
48563;BME280;34981;49.104;11.396;2023-06-22T03:32:01;99923.13;;;17.93;100.00
48563;BME280;34981;49.104;11.396;2023-06-22T03:34:29;99978.03;;;17.83;100.00
48563;BME280;34981;49.104;11.396;2023-06-22T03:37:00;100203.97;;;17.77;100.00
48563;BME280;34981;49.104;11.396;2023-06-22T03:39:27;100287.31;;;17.78;100.00
48563;BME280;34981;49.104;11.396;2023-06-22T03:41:54;100355.81;;;17.88;100.00
48563;BME280;34981;49.104;11.396;2023-06-22T03:44:23;100399.38;;;17.88;100.00
48563;BME280;34981;49.104;11.396;2023-06-22T03:46:50;100443.13;;;17.86;100.00
48563;BME280;34981;49.104;11.396;2023-06-22T03:49:18;100499.66;;;17.84;100.00
48563;BME280;34981;49.104;11.396;2023-06-22T03:51:45;100618.63;;;17.90;100.00
48563;BME280;34981;49.104;11.396;2023-06-22T03:54:13;100722.34;;;17.96;100.00
48563;BME280;34981;49.104;11.396;2023-06-22T03:56:40;100766.97;;;17.95;100.00
48563;BME280;34981;49.104;11.396;2023-06-22T03:59:07;100824.84;;;18.03;100.00
48563;BME280;34981;49.104;11.396;2023-06-22T04:01:34;100853.81;;;18.11;100.00
48563;BME280;34981;49.104;11.396;2023-06-22T04:04:01;100879.22;;;18.18;100.00
48563;BME280;34981;49.104;11.396;2023-06-22T04:06:28;100880.38;;;18.09;100.00
48563;BME280;34981;49.104;11.396;2023-06-22T04:08:55;100884.38;;;18.13;100.00
48563;BME280;34981;49.104;11.396;2023-06-22T04:11:23;100920.84;;;18.12;100.00
48563;BME280;34981;49.104;11.396;2023-06-22T04:13:50;100945.81;;;18.15;100.00
48563;BME280;34981;49.104;11.396;2023-06-22T04:16:18;100987.94;;;18.41;100.00
48563;BME280;34981;49.104;11.396;2023-06-22T04:18:45;101026.66;;;18.57;100.00
48563;BME280;34981;49.104;11.396;2023-06-22T04:21:13;101042.50;;;18.69;100.00
48563;BME280;34981;49.104;11.396;2023-06-22T04:23:40;101046.13;;;18.76;100.00
48563;BME280;34981;49.104;11.396;2023-06-22T04:26:07;101039.88;;;18.82;100.00
48563;BME280;34981;49.104;11.396;2023-06-22T04:28:34;101049.81;;;18.96;100.00
48563;BME280;34981;49.104;11.396;2023-06-22T04:31:02;101043.97;;;18.99;100.00
48563;BME280;34981;49.104;11.396;2023-06-22T04:33:30;101057.28;;;19.15;100.00
48563;BME280;34981;49.104;11.396;2023-06-22T04:35:57;101080.47;;;19.32;100.00
48563;BME280;34981;49.104;11.396;2023-06-22T04:38:25;101092.28;;;19.46;100.00
48563;BME280;34981;49.104;11.396;2023-06-22T04:40:52;101101.84;;;19.57;100.00
48563;BME280;34981;49.104;11.396;2023-06-22T04:43:20;101066.03;;;19.45;100.00
48563;BME280;34981;49.104;11.396;2023-06-22T04:45:47;101081.47;;;19.59;100.00
48563;BME280;34981;49.104;11.396;2023-06-22T04:48:19;101056.72;;;19.67;100.00
48563;BME280;34981;49.104;11.396;2023-06-22T04:50:46;101055.03;;;19.73;100.00
48563;BME280;34981;49.104;11.396;2023-06-22T04:53:13;101047.72;;;19.80;100.00
48563;BME280;34981;49.104;11.396;2023-06-22T04:55:40;101033.88;;;19.88;100.00
48563;BME280;34981;49.104;11.396;2023-06-22T04:58:08;101030.53;;;19.86;100.00
48563;BME280;34981;49.104;11.396;2023-06-22T05:00:35;101026.78;;;19.94;100.00
48563;BME280;34981;49.104;11.396;2023-06-22T05:03:03;101057.31;;;20.24;100.00
48563;BME280;34981;49.104;11.396;2023-06-22T05:05:45;101025.16;;;20.39;100.00
48563;BME280;34981;49.104;11.396;2023-06-22T05:08:13;101047.03;;;20.65;100.00
48563;BME280;34981;49.104;11.396;2023-06-22T05:10:40;101097.06;;;21.38;100.00
48563;BME280;34981;49.104;11.396;2023-06-22T05:13:25;101044.28;;;22.07;100.00
48563;BME280;34981;49.104;11.396;2023-06-22T05:15:53;101038.84;;;23.24;100.00
48563;BME280;34981;49.104;11.396;2023-06-22T05:18:29;100833.09;;;23.53;100.00
48563;BME280;34981;49.104;11.396;2023-06-22T05:20:58;100644.25;;;24.12;100.00
48563;BME280;34981;49.104;11.396;2023-06-22T05:23:25;100619.19;;;23.56;100.00
48563;BME280;34981;49.104;11.396;2023-06-22T05:25:52;100437.88;;;24.01;100.00
48563;BME280;34981;49.104;11.396;2023-06-22T05:28:21;100270.53;;;23.88;100.00
48563;BME280;34981;49.104;11.396;2023-06-22T05:30:50;100159.63;;;23.99;100.00
48563;BME280;34981;49.104;11.396;2023-06-22T05:33:17;99987.56;;;23.33;100.00
48563;BME280;34981;49.104;11.396;2023-06-22T05:35:44;99939.59;;;22.80;100.00
48563;BME280;34981;49.104;11.396;2023-06-22T05:38:11;99960.38;;;22.60;100.00
48563;BME280;34981;49.104;11.396;2023-06-22T05:40:39;99942.47;;;22.35;100.00
48563;BME280;34981;49.104;11.396;2023-06-22T05:43:06;99970.75;;;22.24;100.00
48563;BME280;34981;49.104;11.396;2023-06-22T05:45:33;99989.50;;;22.16;100.00
48563;BME280;34981;49.104;11.396;2023-06-22T05:48:00;100038.06;;;22.32;100.00
48563;BME280;34981;49.104;11.396;2023-06-22T05:50:28;99996.19;;;22.20;100.00
48563;BME280;34981;49.104;11.396;2023-06-22T05:52:56;99963.84;;;22.05;100.00
48563;BME280;34981;49.104;11.396;2023-06-22T05:55:23;100006.63;;;22.06;100.00
48563;BME280;34981;49.104;11.396;2023-06-22T05:57:50;99984.03;;;21.99;100.00
48563;BME280;34981;49.104;11.396;2023-06-22T06:00:17;99998.41;;;21.94;100.00
48563;BME280;34981;49.104;11.396;2023-06-22T06:02:44;100073.75;;;22.48;100.00
48563;BME280;34981;49.104;11.396;2023-06-22T06:05:12;100089.44;;;22.98;100.00
48563;BME280;34981;49.104;11.396;2023-06-22T06:07:42;100003.22;;;23.16;100.00
48563;BME280;34981;49.104;11.396;2023-06-22T06:10:09;99927.72;;;23.13;100.00
48563;BME280;34981;49.104;11.396;2023-06-22T06:12:36;99823.38;;;22.86;100.00
48563;BME280;34981;49.104;11.396;2023-06-22T06:15:04;99824.19;;;22.87;100.00
48563;BME280;34981;49.104;11.396;2023-06-22T06:17:31;99825.31;;;23.35;100.00
48563;BME280;34981;49.104;11.396;2023-06-22T06:19:59;99691.34;;;23.10;100.00
48563;BME280;34981;49.104;11.396;2023-06-22T06:22:26;99684.97;;;23.63;100.00
48563;BME280;34981;49.104;11.396;2023-06-22T06:24:53;99612.63;;;23.94;100.00
48563;BME280;34981;49.104;11.396;2023-06-22T06:27:20;99473.22;;;23.75;100.00
48563;BME280;34981;49.104;11.396;2023-06-22T06:29:47;99417.44;;;23.64;100.00
48563;BME280;34981;49.104;11.396;2023-06-22T06:32:15;99381.19;;;23.82;100.00
48563;BME280;34981;49.104;11.396;2023-06-22T06:34:42;99349.03;;;23.83;100.00
48563;BME280;34981;49.104;11.396;2023-06-22T06:37:10;99329.59;;;24.25;100.00
48563;BME280;34981;49.104;11.396;2023-06-22T06:39:37;99234.19;;;24.20;100.00
48563;BME280;34981;49.104;11.396;2023-06-22T06:42:05;99164.19;;;24.62;100.00
48563;BME280;34981;49.104;11.396;2023-06-22T06:44:32;99021.53;;;24.45;100.00
48563;BME280;34981;49.104;11.396;2023-06-22T06:46:59;98931.03;;;24.10;100.00
48563;BME280;34981;49.104;11.396;2023-06-22T06:49:26;98896.50;;;24.66;100.00
48563;BME280;34981;49.104;11.396;2023-06-22T06:51:54;98770.19;;;24.46;100.00
48563;BME280;34981;49.104;11.396;2023-06-22T06:54:22;98703.09;;;24.90;100.00
48563;BME280;34981;49.104;11.396;2023-06-22T06:56:49;98542.22;;;24.63;100.00
48563;BME280;34981;49.104;11.396;2023-06-22T06:59:17;98473.13;;;25.02;100.00
48563;BME280;34981;49.104;11.396;2023-06-22T07:01:44;98341.31;;;25.14;100.00
48563;BME280;34981;49.104;11.396;2023-06-22T07:04:11;98220.63;;;25.08;100.00
48563;BME280;34981;49.104;11.396;2023-06-22T07:06:39;98175.44;;;25.58;100.00
48563;BME280;34981;49.104;11.396;2023-06-22T07:09:06;98065.97;;;25.50;100.00
48563;BME280;34981;49.104;11.396;2023-06-22T07:11:33;97858.81;;;25.53;100.00
48563;BME280;34981;49.104;11.396;2023-06-22T07:14:02;97682.53;;;25.19;100.00
48563;BME280;34981;49.104;11.396;2023-06-22T07:16:29;97647.41;;;25.42;100.00
48563;BME280;34981;49.104;11.396;2023-06-22T07:18:58;97503.56;;;25.62;100.00
48563;BME280;34981;49.104;11.396;2023-06-22T07:21:25;97338.38;;;25.07;100.00
48563;BME280;34981;49.104;11.396;2023-06-22T07:23:52;97297.66;;;24.83;100.00
48563;BME280;34981;49.104;11.396;2023-06-22T07:26:21;97192.38;;;24.74;100.00
48563;BME280;34981;49.104;11.396;2023-06-22T07:28:48;97131.94;;;25.15;100.00
48563;BME280;34981;49.104;11.396;2023-06-22T07:31:15;97031.13;;;25.32;100.00
48563;BME280;34981;49.104;11.396;2023-06-22T07:33:42;96967.66;;;25.28;100.00
48563;BME280;34981;49.104;11.396;2023-06-22T07:36:09;96861.31;;;25.81;100.00
48563;BME280;34981;49.104;11.396;2023-06-22T07:38:36;96789.72;;;25.56;100.00
48563;BME280;34981;49.104;11.396;2023-06-22T07:41:03;96690.03;;;25.39;100.00
48563;BME280;34981;49.104;11.396;2023-06-22T07:43:32;96669.38;;;26.41;100.00
48563;BME280;34981;49.104;11.396;2023-06-22T07:46:01;96490.63;;;26.43;100.00
48563;BME280;34981;49.104;11.396;2023-06-22T07:48:28;96412.44;;;26.00;100.00
48563;BME280;34981;49.104;11.396;2023-06-22T07:50:55;96398.94;;;26.65;100.00
48563;BME280;34981;49.104;11.396;2023-06-22T07:53:23;96234.06;;;26.55;100.00
48563;BME280;34981;49.104;11.396;2023-06-22T07:55:50;96182.72;;;26.08;100.00
48563;BME280;34981;49.104;11.396;2023-06-22T07:58:17;96243.66;;;26.42;100.00
48563;BME280;34981;49.104;11.396;2023-06-22T08:00:46;96177.38;;;26.57;100.00
48563;BME280;34981;49.104;11.396;2023-06-22T08:03:13;96051.81;;;26.37;100.00
48563;BME280;34981;49.104;11.396;2023-06-22T08:05:40;96011.97;;;27.13;100.00
48563;BME280;34981;49.104;11.396;2023-06-22T08:08:08;95862.06;;;26.72;100.00
48563;BME280;34981;49.104;11.396;2023-06-22T08:10:35;95845.50;;;27.02;100.00
48563;BME280;34981;49.104;11.396;2023-06-22T08:13:03;95829.44;;;26.78;100.00
48563;BME280;34981;49.104;11.396;2023-06-22T08:15:30;95801.09;;;27.59;100.00
48563;BME280;34981;49.104;11.396;2023-06-22T08:17:58;95693.81;;;27.61;100.00
48563;BME280;34981;49.104;11.396;2023-06-22T08:20:27;95664.69;;;27.74;100.00
48563;BME280;34981;49.104;11.396;2023-06-22T08:22:55;95564.56;;;28.05;100.00
48563;BME280;34981;49.104;11.396;2023-06-22T08:25:22;95506.91;;;28.11;100.00
48563;BME280;34981;49.104;11.396;2023-06-22T08:27:49;95495.00;;;27.78;100.00
48563;BME280;34981;49.104;11.396;2023-06-22T08:30:16;95523.84;;;26.98;100.00
48563;BME280;34981;49.104;11.396;2023-06-22T08:32:45;95589.44;;;27.26;100.00
48563;BME280;34981;49.104;11.396;2023-06-22T08:35:12;95599.94;;;27.68;100.00
48563;BME280;34981;49.104;11.396;2023-06-22T08:37:39;95603.72;;;28.57;100.00
48563;BME280;34981;49.104;11.396;2023-06-22T08:40:07;95564.25;;;28.63;100.00
48563;BME280;34981;49.104;11.396;2023-06-22T08:42:36;95564.63;;;28.26;100.00
48563;BME280;34981;49.104;11.396;2023-06-22T08:45:04;95559.78;;;28.06;100.00
48563;BME280;34981;49.104;11.396;2023-06-22T08:47:31;95568.97;;;28.31;100.00
48563;BME280;34981;49.104;11.396;2023-06-22T08:49:59;95544.84;;;28.35;100.00
48563;BME280;34981;49.104;11.396;2023-06-22T08:52:28;95560.72;;;28.77;100.00
48563;BME280;34981;49.104;11.396;2023-06-22T08:54:56;95571.72;;;28.24;100.00
48563;BME280;34981;49.104;11.396;2023-06-22T08:57:23;95608.72;;;27.95;100.00
48563;BME280;34981;49.104;11.396;2023-06-22T08:59:50;95593.88;;;28.63;100.00
48563;BME280;34981;49.104;11.396;2023-06-22T09:02:19;95529.84;;;28.50;100.00
48563;BME280;34981;49.104;11.396;2023-06-22T09:04:46;95547.19;;;29.18;100.00
48563;BME280;34981;49.104;11.396;2023-06-22T09:07:14;95556.66;;;29.42;100.00
48563;BME280;34981;49.104;11.396;2023-06-22T09:09:41;95583.56;;;29.27;100.00
48563;BME280;34981;49.104;11.396;2023-06-22T09:12:08;95615.56;;;29.57;100.00
48563;BME280;34981;49.104;11.396;2023-06-22T09:14:35;95673.75;;;29.07;100.00
48563;BME280;34981;49.104;11.396;2023-06-22T09:17:02;95709.75;;;29.18;100.00
48563;BME280;34981;49.104;11.396;2023-06-22T09:19:30;95696.69;;;29.47;100.00
48563;BME280;34981;49.104;11.396;2023-06-22T09:21:57;95718.00;;;28.86;100.00
48563;BME280;34981;49.104;11.396;2023-06-22T09:24:24;95720.41;;;29.05;100.00
48563;BME280;34981;49.104;11.396;2023-06-22T09:26:51;95721.22;;;29.06;100.00
48563;BME280;34981;49.104;11.396;2023-06-22T09:29:18;95701.41;;;29.60;100.00
48563;BME280;34981;49.104;11.396;2023-06-22T09:31:45;95679.28;;;29.46;100.00
48563;BME280;34981;49.104;11.396;2023-06-22T09:34:12;95658.72;;;29.40;100.00
48563;BME280;34981;49.104;11.396;2023-06-22T09:36:41;95621.47;;;29.73;100.00
48563;BME280;34981;49.104;11.396;2023-06-22T09:39:08;95580.19;;;29.89;100.00
48563;BME280;34981;49.104;11.396;2023-06-22T09:41:35;95524.97;;;29.47;100.00
48563;BME280;34981;49.104;11.396;2023-06-22T09:44:02;95512.66;;;29.62;100.00
48563;BME280;34981;49.104;11.396;2023-06-22T09:46:29;95484.41;;;29.95;100.00
48563;BME280;34981;49.104;11.396;2023-06-22T09:48:56;95475.31;;;29.88;100.00
48563;BME280;34981;49.104;11.396;2023-06-22T09:51:23;95470.91;;;30.01;100.00
48563;BME280;34981;49.104;11.396;2023-06-22T09:53:51;95489.81;;;30.13;100.00
48563;BME280;34981;49.104;11.396;2023-06-22T09:56:18;95492.00;;;29.73;100.00
48563;BME280;34981;49.104;11.396;2023-06-22T09:58:46;95516.56;;;29.68;100.00
48563;BME280;34981;49.104;11.396;2023-06-22T10:01:13;95523.97;;;29.99;100.00
48563;BME280;34981;49.104;11.396;2023-06-22T10:03:44;95536.25;;;29.91;100.00
48563;BME280;34981;49.104;11.396;2023-06-22T10:06:11;95536.59;;;30.07;100.00
48563;BME280;34981;49.104;11.396;2023-06-22T10:08:38;95542.69;;;30.40;100.00
48563;BME280;34981;49.104;11.396;2023-06-22T10:11:06;95546.16;;;29.92;100.00
48563;BME280;34981;49.104;11.396;2023-06-22T10:13:33;95565.78;;;29.18;100.00
48563;BME280;34981;49.104;11.396;2023-06-22T10:16:00;95556.63;;;29.46;100.00
48563;BME280;34981;49.104;11.396;2023-06-22T10:18:27;95580.34;;;29.54;100.00
48563;BME280;34981;49.104;11.396;2023-06-22T10:20:54;95571.28;;;29.32;100.00
48563;BME280;34981;49.104;11.396;2023-06-22T10:23:22;95580.41;;;29.18;100.00
48563;BME280;34981;49.104;11.396;2023-06-22T10:25:49;95578.63;;;29.88;100.00
48563;BME280;34981;49.104;11.396;2023-06-22T10:28:16;95585.69;;;30.03;100.00
48563;BME280;34981;49.104;11.396;2023-06-22T10:30:43;95593.44;;;30.37;100.00
48563;BME280;34981;49.104;11.396;2023-06-22T10:33:11;95614.53;;;30.20;100.00
48563;BME280;34981;49.104;11.396;2023-06-22T10:35:38;95638.81;;;29.95;100.00
48563;BME280;34981;49.104;11.396;2023-06-22T10:38:06;95655.84;;;29.93;100.00
48563;BME280;34981;49.104;11.396;2023-06-22T10:40:33;95652.19;;;30.10;100.00
48563;BME280;34981;49.104;11.396;2023-06-22T10:43:00;95657.41;;;29.91;100.00
48563;BME280;34981;49.104;11.396;2023-06-22T10:45:27;95655.38;;;30.12;100.00
48563;BME280;34981;49.104;11.396;2023-06-22T10:47:56;95650.59;;;30.16;100.00
48563;BME280;34981;49.104;11.396;2023-06-22T10:50:24;95659.53;;;30.49;100.00
48563;BME280;34981;49.104;11.396;2023-06-22T10:52:51;95670.34;;;30.26;100.00
48563;BME280;34981;49.104;11.396;2023-06-22T10:55:18;95688.50;;;30.41;100.00
48563;BME280;34981;49.104;11.396;2023-06-22T10:57:45;95684.53;;;30.42;100.00
48563;BME280;34981;49.104;11.396;2023-06-22T11:00:14;95693.22;;;30.47;100.00
48563;BME280;34981;49.104;11.396;2023-06-22T11:02:43;95692.78;;;30.63;100.00
48563;BME280;34981;49.104;11.396;2023-06-22T11:05:10;95698.34;;;30.60;100.00
48563;BME280;34981;49.104;11.396;2023-06-22T11:07:39;95705.25;;;30.19;100.00
48563;BME280;34981;49.104;11.396;2023-06-22T11:10:12;95707.91;;;30.41;100.00
48563;BME280;34981;49.104;11.396;2023-06-22T11:12:40;95698.38;;;30.49;100.00
48563;BME280;34981;49.104;11.396;2023-06-22T11:15:07;95711.03;;;30.57;100.00
48563;BME280;34981;49.104;11.396;2023-06-22T11:17:35;95713.69;;;30.78;100.00
48563;BME280;34981;49.104;11.396;2023-06-22T11:20:02;95713.81;;;30.61;100.00
48563;BME280;34981;49.104;11.396;2023-06-22T11:22:37;95744.28;;;30.64;100.00
48563;BME280;34981;49.104;11.396;2023-06-22T11:25:04;95749.28;;;30.98;100.00
48563;BME280;34981;49.104;11.396;2023-06-22T11:27:32;95748.50;;;30.93;100.00
48563;BME280;34981;49.104;11.396;2023-06-22T11:29:59;95777.00;;;31.05;100.00
48563;BME280;34981;49.104;11.396;2023-06-22T11:32:26;95764.75;;;30.91;100.00
48563;BME280;34981;49.104;11.396;2023-06-22T11:34:53;95775.75;;;31.16;100.00
48563;BME280;34981;49.104;11.396;2023-06-22T11:37:20;95777.91;;;30.80;100.00
48563;BME280;34981;49.104;11.396;2023-06-22T11:39:47;95791.63;;;31.16;100.00
48563;BME280;34981;49.104;11.396;2023-06-22T11:42:18;95791.31;;;30.92;100.00
48563;BME280;34981;49.104;11.396;2023-06-22T11:44:46;95801.97;;;31.12;100.00
48563;BME280;34981;49.104;11.396;2023-06-22T11:47:13;95803.34;;;31.41;100.00
48563;BME280;34981;49.104;11.396;2023-06-22T11:49:40;95790.53;;;30.95;100.00
48563;BME280;34981;49.104;11.396;2023-06-22T11:52:08;95790.88;;;31.08;100.00
48563;BME280;34981;49.104;11.396;2023-06-22T11:54:35;95793.44;;;31.37;100.00
48563;BME280;34981;49.104;11.396;2023-06-22T11:57:02;95782.56;;;31.56;100.00
48563;BME280;34981;49.104;11.396;2023-06-22T11:59:29;95785.25;;;31.74;100.00
48563;BME280;34981;49.104;11.396;2023-06-22T12:01:57;95787.63;;;31.72;100.00
48563;BME280;34981;49.104;11.396;2023-06-22T12:04:25;95808.16;;;31.33;100.00
48563;BME280;34981;49.104;11.396;2023-06-22T12:06:52;95832.94;;;31.65;100.00
48563;BME280;34981;49.104;11.396;2023-06-22T12:09:19;95883.97;;;31.34;100.00
48563;BME280;34981;49.104;11.396;2023-06-22T12:11:46;95902.88;;;31.60;100.00
48563;BME280;34981;49.104;11.396;2023-06-22T12:14:13;95943.28;;;31.76;100.00
48563;BME280;34981;49.104;11.396;2023-06-22T12:16:40;95957.56;;;31.74;100.00
48563;BME280;34981;49.104;11.396;2023-06-22T12:19:07;95889.53;;;31.34;100.00
48563;BME280;34981;49.104;11.396;2023-06-22T12:21:35;95890.19;;;31.56;100.00
48563;BME280;34981;49.104;11.396;2023-06-22T12:24:02;95875.09;;;31.50;100.00
48563;BME280;34981;49.104;11.396;2023-06-22T12:26:29;95879.88;;;31.49;100.00
48563;BME280;34981;49.104;11.396;2023-06-22T12:28:56;95894.53;;;31.60;100.00
48563;BME280;34981;49.104;11.396;2023-06-22T12:31:23;95896.63;;;31.35;100.00
48563;BME280;34981;49.104;11.396;2023-06-22T12:33:50;95893.31;;;31.65;100.00
48563;BME280;34981;49.104;11.396;2023-06-22T12:36:17;95894.84;;;31.73;100.00
48563;BME280;34981;49.104;11.396;2023-06-22T12:38:44;95905.34;;;32.03;100.00
48563;BME280;34981;49.104;11.396;2023-06-22T12:41:12;95915.03;;;31.84;100.00
48563;BME280;34981;49.104;11.396;2023-06-22T12:43:40;95917.13;;;31.69;100.00
48563;BME280;34981;49.104;11.396;2023-06-22T12:46:07;95937.88;;;31.44;100.00